Hub


Voltar

 INFORMAÇÕES METEOROLÓGICAS

METAR FOR LSZA


ADDS - METARS form results

(0559 UTC 17 January 2019)
Data provider http://aviationweather.gov/metar/data/
 
METAR text: LSZA 170550Z 11002KT 8000 FEW012 SCT032 BKN052 05/05 Q1014 NOSIG
Conditions at: LSZA (LUGANO (PVT/AUT), CH) observed 0550 UTC 17 January 2019
Temperature: 5.0°C (41°F)
Dewpoint: 5.0°C (41°F) [RH = 100%]
Pressure (altimeter): 29.94 inches Hg (1014.0 mb)
Winds: from the ESE (110 degrees) at 2 MPH (2 knots; 1.0 m/s)
Visibility: 5 miles ( 8 km)
Ceiling: 5200 feet AGL
Clouds: few clouds at 1200 feet AGL
scattered clouds at 3200 feet AGL
broken clouds at 5200 feet AGL
Weather: no significant weather observed at this time

METAR text: LSZA 170520Z 01004KT 350V110 9000 -RA SCT022 BKN037 05/04 Q1014 NOSIG
Conditions at: LSZA (LUGANO (PVT/AUT), CH) observed 0520 UTC 17 January 2019
Temperature: 5.0°C (41°F)
Dewpoint: 4.0°C (39°F) [RH = 93%]
Pressure (altimeter): 29.94 inches Hg (1014.0 mb)
Winds: from the N (10 degrees) at 5 MPH (4 knots; 2.1 m/s)
Visibility: 6 miles ( 9 km)
Ceiling: 3700 feet AGL
Clouds: scattered clouds at 2200 feet AGL
broken clouds at 3700 feet AGL
Weather: -RA  (light rain)

Forecast for: LSZA (LUGANO (PVT/AUT), CH)
Text: TAF LSZA 170525Z 1706/1715 VRB03KT 9000 -RA SCT022 BKN037
Forecast period: 0600 to 1500 UTC 17 January 2019
Forecast type: FROM: standard forecast or significant change
Winds: variable direction winds at 3 MPH (3 knots; 1.5 m/s)
Visibility: 6 miles (9 km)
Ceiling: 3700 feet AGL
Clouds: scattered clouds at 2200 feet AGL
broken clouds at 3700 feet AGL
Weather: -RA  (light rain)


 MAPA DO AEROPORTO


 INFORMAÇÕES DA PISTA

Pista 01 Tamanho da pista 4429 ft Largura da pista 98 ft
Elevação da pista 896 ft Ranhura da pista 361 ft Proa da pista 19
Pista 19 Tamanho da pista 4429 ft Largura da pista 98 ft
Elevação da pista 915 ft Ranhura da pista 672 ft Proa da pista 199

 FREQUÊNCIAS DO AEROPORTO

Tipo ATIS Nome ATIS Frequência 121.175 MHZ
Tipo GND Nome GND Frequência 121.775 MHZ
Tipo TWR Nome TWR Frequência 120.25 MHZ

 AUXÍLIOS DE NAVEGAÇÃO PRÓXIMOS AO AEROPORTO